Aérodrome :
LOGIN :

S'inscrire | Disclaimer

   EN    FR    IT 

 










Légende :    VFR   VFR Marginal   IFR   IFR Intensif   IFR Très Intensif
Visi : 
Plafond : 
>= 8 km
>= 3000ft
5 à 8 km
1000 à 3000 ft
1500m à 5 km
500 à 1000 ft
800 à 1500m
200 à 500 ft
< 800m
< 200 ft
Symboles :   Orages  Brouillard  Fortes neiges  Fortes précipitations  Vent > 20 kt
SIGMETs :   Divers  Orages  Givrage  Turbulence  Onde Orograph.  Cendres Volcan.






- Altitude de l'aérodrome : 16 ft
- Code IATA : SDR


LEXJ - Santander Cantabria

DERNIER METAR :
  • 231400Z VRB02KT 9000 -RA SCT018 BKN036 BKN060 10/10 Q1002

METARs EXPIRÉS :
  • 231330Z 28004KT 8000 RA BKN016 BKN030 11/09 Q1004
  • 231300Z 34003KT 290V080 9999 -RA SCT015 BKN055 12/09 Q1005
  • 231230Z 02003KT 9999 -RA FEW035 BKN055 12/09 Q1005
  • 231200Z 01003KT 340V050 9999 -RA FEW035 OVC060 12/08 Q1006
  • 231130Z 00000KT 9999 -RA SCT040 BKN058 12/07 Q1006

TAF TAF LEXJ
Valide du 23 à 09h jusqu'au 24 à 09h UTC


230800Z 2309/2409 25009KT 9999 SCT050 TX12/2315Z TN08/2407Z
TEMPO 2309/2409 3000 RA SHRA SCT030TCU
TEMPO 2319/2409 BKN010
TEMPO 2321/2401 28020G40KT
TEMPO 2321/2409 28018G30KT



MET'MAP, la Météo Aéronautique d'un coup d'oeil ! - Copyright ORBIFLY Décembre 2007 - Disclaimer

ORBIFLY MET'MAP TEAM :

Programmation & Développement : Alexandra Zaïnal
Sur une idée originale de : Baudouin d'Aumeries
Assistance à la programmation : Marc-Olivier Méhu
Soutien technique & logistique : Manuel Goepfert

Contact : metmap@orbifly.com




SOURCES & CREDITS :

   NOAA